Time;durP1;ratioP1;P1;durP2;ratioP2;P2;SDS_P1;SDS_P2;PMS_P1;PMS_P2;Temp;Humidity;BMP_temperature;BMP_pressure;BME280_temperature;BME280_humidity;BME280_pressure;Samples;Min_cycle;Max_cycle;Signal;HPM_P1;HPM_P2
2024/02/27 00:00:36;;;;;;;25.50;14.03;;;5.70;99.90;;;;;;5039313;28;20025;-84
2024/02/27 00:03:03;;;;;;;26.13;14.00;;;5.60;99.90;;;;;;5038780;28;20017;-83
2024/02/27 00:05:29;;;;;;;23.47;13.47;;;5.50;99.90;;;;;;5038724;28;20521;-83
2024/02/27 00:07:54;;;;;;;24.77;14.33;;;5.50;99.90;;;;;;5038945;28;20025;-83
2024/02/27 00:10:21;;;;;;;23.87;14.60;;;5.40;99.90;;;;;;5038474;28;20049;-83
2024/02/27 00:12:47;;;;;;;22.77;14.00;;;5.30;99.90;;;;;;5039185;28;20036;-83
2024/02/27 00:15:12;;;;;;;26.53;14.93;;;5.30;99.90;;;;;;5038662;28;20029;-81
2024/02/27 00:17:38;;;;;;;23.27;13.40;;;5.30;99.90;;;;;;5038825;28;20029;-83
2024/02/27 00:20:04;;;;;;;24.30;13.30;;;5.30;99.90;;;;;;5038570;28;20025;-83
2024/02/27 00:22:30;;;;;;;25.07;13.50;;;5.20;99.90;;;;;;5038538;28;20448;-82
2024/02/27 00:24:56;;;;;;;26.17;15.60;;;5.20;99.90;;;;;;5038556;28;20030;-83
2024/02/27 00:27:21;;;;;;;27.20;15.40;;;5.20;99.90;;;;;;5038692;28;20361;-83
2024/02/27 00:29:47;;;;;;;26.73;14.73;;;5.10;99.90;;;;;;5023799;28;20084;-83
2024/02/27 00:32:13;;;;;;;23.93;14.53;;;5.10;99.90;;;;;;5017960;28;20124;-83
2024/02/27 00:34:38;;;;;;;25.40;14.80;;;5.20;99.90;;;;;;5019047;28;20025;-83
2024/02/27 00:37:05;;;;;;;24.80;13.80;;;5.20;99.90;;;;;;5018644;28;20072;-83
2024/02/27 00:39:30;;;;;;;31.67;15.60;;;5.10;99.90;;;;;;5018870;28;20050;-82
2024/02/27 00:41:58;;;;;;;26.87;13.97;;;5.10;99.90;;;;;;5018375;28;20033;-81
2024/02/27 00:44:24;;;;;;;25.20;14.03;;;5.10;99.90;;;;;;5020451;28;20085;-83
2024/02/27 00:46:50;;;;;;;26.10;14.33;;;5.20;99.90;;;;;;5019248;28;20014;-83
2024/02/27 00:49:15;;;;;;;27.67;14.17;;;5.20;99.90;;;;;;5018747;28;20474;-83
2024/02/27 00:51:41;;;;;;;27.20;14.77;;;5.10;99.90;;;;;;5019042;28;20034;-83
2024/02/27 00:54:07;;;;;;;30.53;16.73;;;5.10;99.90;;;;;;5018025;28;20034;-83
2024/02/27 00:56:32;;;;;;;23.00;12.87;;;5.10;99.90;;;;;;5018594;28;20058;-83
2024/02/27 00:58:58;;;;;;;25.70;14.90;;;5.10;99.90;;;;;;5020176;28;20029;-83
2024/02/27 01:01:24;;;;;;;26.33;15.30;;;5.10;99.90;;;;;;5022148;28;20038;-82
2024/02/27 01:03:49;;;;;;;24.93;15.27;;;5.00;99.90;;;;;;5022389;28;20026;-82
2024/02/27 01:06:16;;;;;;;22.87;13.03;;;5.00;99.90;;;;;;5022152;28;20056;-82
2024/02/27 01:08:42;;;;;;;26.10;14.37;;;5.00;99.90;;;;;;5038800;28;20018;-82
2024/02/27 01:11:07;;;;;;;26.37;14.27;;;4.90;99.90;;;;;;5022147;28;20020;-82
2024/02/27 01:13:33;;;;;;;31.13;16.07;;;4.90;99.90;;;;;;5022452;28;20034;-82
2024/02/27 01:15:59;;;;;;;27.67;14.23;;;4.90;99.90;;;;;;5021945;28;20060;-82
2024/02/27 01:18:24;;;;;;;26.97;14.70;;;4.90;99.90;;;;;;5022398;28;20046;-83
2024/02/27 01:20:50;;;;;;;25.80;15.10;;;4.90;99.90;;;;;;5021841;28;20096;-82
2024/02/27 01:23:15;;;;;;;27.47;14.90;;;4.90;99.90;;;;;;5021964;28;20105;-82
2024/02/27 01:25:41;;;;;;;24.37;13.27;;;4.90;99.90;;;;;;5022391;28;20029;-82
2024/02/27 01:28:07;;;;;;;25.70;14.83;;;5.00;99.90;;;;;;5021651;28;20045;-82
2024/02/27 01:30:36;;;;;;;22.80;13.60;;;5.00;99.90;;;;;;5021334;28;20037;-80
2024/02/27 01:33:02;;;;;;;27.37;13.90;;;5.00;99.90;;;;;;5021422;28;20037;-82
2024/02/27 01:35:28;;;;;;;25.77;15.23;;;5.00;99.90;;;;;;5021705;28;20052;-82
2024/02/27 01:37:53;;;;;;;30.40;16.50;;;5.00;99.90;;;;;;5022896;28;20025;-83
2024/02/27 01:40:19;;;;;;;26.30;15.03;;;5.00;99.90;;;;;;5021889;28;20022;-81
2024/02/27 01:42:45;;;;;;;25.77;14.80;;;5.00;99.90;;;;;;5021684;28;20078;-83
2024/02/27 01:45:25;;;;;;;28.97;15.07;;;5.00;99.90;;;;;;5021469;28;20030;-84
2024/02/27 01:47:52;;;;;;;29.70;14.20;;;5.00;99.90;;;;;;5023240;28;20022;-82
2024/02/27 01:50:19;;;;;;;26.37;14.37;;;5.00;99.90;;;;;;5021525;28;20021;-82
2024/02/27 01:52:45;;;;;;;25.13;14.40;;;5.00;99.90;;;;;;5021160;28;20394;-80
2024/02/27 01:55:13;;;;;;;25.57;15.17;;;5.00;99.90;;;;;;5021609;28;20022;-82
2024/02/27 01:57:40;;;;;;;25.57;13.40;;;5.00;99.90;;;;;;5022721;28;20038;-82
2024/02/27 02:00:09;;;;;;;25.73;15.20;;;5.00;99.90;;;;;;5023479;28;20382;-82
2024/02/27 02:02:37;;;;;;;26.43;14.87;;;5.00;99.90;;;;;;5022779;28;20359;-82
2024/02/27 02:05:07;;;;;;;28.40;14.97;;;4.90;99.90;;;;;;5021435;28;20030;-82
2024/02/27 02:07:34;;;;;;;25.77;14.43;;;4.90;99.90;;;;;;5020986;28;20131;-82
2024/02/27 02:10:01;;;;;;;27.50;15.27;;;4.80;99.90;;;;;;5020595;28;20037;-82
2024/02/27 02:12:26;;;;;;;29.07;15.60;;;4.80;99.90;;;;;;5022618;28;20042;-81
2024/02/27 02:14:53;;;;;;;31.70;15.97;;;4.70;99.90;;;;;;5021055;28;20461;-83
2024/02/27 02:17:18;;;;;;;31.13;15.03;;;4.70;99.90;;;;;;5021808;28;20164;-82
2024/02/27 02:19:44;;;;;;;29.30;15.90;;;4.70;99.90;;;;;;5020696;28;20030;-83
2024/02/27 02:22:10;;;;;;;28.83;16.07;;;4.60;99.90;;;;;;5020734;28;20405;-83
2024/02/27 02:24:37;;;;;;;28.37;16.07;;;4.60;99.90;;;;;;5022085;28;20068;-83
2024/02/27 02:27:03;;;;;;;34.43;16.73;;;4.50;99.90;;;;;;5020831;28;20026;-83
2024/02/27 02:29:29;;;;;;;27.20;15.10;;;4.50;99.90;;;;;;5020854;28;20032;-83
2024/02/27 02:31:55;;;;;;;29.23;15.40;;;4.50;99.90;;;;;;5020210;28;20093;-83
2024/02/27 02:34:20;;;;;;;28.20;15.10;;;4.40;99.90;;;;;;5022742;28;20033;-82
2024/02/27 02:36:46;;;;;;;26.17;14.47;;;4.40;99.90;;;;;;5020632;28;20028;-83
2024/02/27 02:39:12;;;;;;;24.47;13.47;;;4.40;99.90;;;;;;5020968;28;20496;-83
2024/02/27 02:41:37;;;;;;;28.17;15.47;;;4.30;99.90;;;;;;5020592;28;20045;-83
2024/02/27 02:44:03;;;;;;;28.60;14.13;;;4.30;99.90;;;;;;5020368;28;20089;-83
2024/02/27 02:46:29;;;;;;;24.77;13.77;;;4.30;99.90;;;;;;5020456;28;20018;-83
2024/02/27 02:49:00;;;;;;;28.53;14.43;;;4.30;99.90;;;;;;5020455;28;20017;-82
2024/02/27 02:51:28;;;;;;;27.03;13.50;;;4.20;99.90;;;;;;5020636;28;20090;-83
2024/02/27 02:53:54;;;;;;;25.23;12.77;;;4.20;99.90;;;;;;5019691;28;20030;-82
2024/02/27 02:56:20;;;;;;;24.13;13.10;;;4.10;99.90;;;;;;5020630;28;20112;-83
2024/02/27 02:58:45;;;;;;;30.07;14.97;;;4.20;99.90;;;;;;5020287;28;20025;-83
2024/02/27 03:01:11;;;;;;;26.77;15.07;;;4.10;99.90;;;;;;5020127;28;20022;-83
2024/02/27 03:03:37;;;;;;;26.47;13.80;;;4.10;99.90;;;;;;5020322;28;20107;-82
2024/02/27 03:06:04;;;;;;;26.37;14.87;;;4.10;99.90;;;;;;5019771;28;20054;-82
2024/02/27 03:08:30;;;;;;;26.60;13.67;;;4.00;99.90;;;;;;5021301;28;20026;-83
2024/02/27 03:10:57;;;;;;;25.10;13.70;;;4.00;99.90;;;;;;5020084;28;20076;-83
2024/02/27 03:13:22;;;;;;;25.20;13.57;;;4.00;99.90;;;;;;5020280;28;20069;-83
2024/02/27 03:15:48;;;;;;;25.40;13.07;;;4.00;99.90;;;;;;5019985;28;20030;-82
2024/02/27 03:18:14;;;;;;;26.37;14.03;;;4.00;99.90;;;;;;5019683;28;20025;-83
2024/02/27 03:20:39;;;;;;;24.73;13.13;;;3.90;99.90;;;;;;5019352;28;20029;-83
2024/02/27 03:23:05;;;;;;;24.97;12.73;;;3.90;99.90;;;;;;5019145;28;20069;-82
2024/02/27 03:25:31;;;;;;;25.37;12.47;;;3.90;99.90;;;;;;5021707;28;20048;-82
2024/02/27 03:27:56;;;;;;;25.03;12.63;;;3.90;99.90;;;;;;5028897;28;20078;-82
2024/02/27 03:30:22;;;;;;;25.97;13.97;;;3.80;99.90;;;;;;5020090;28;20099;-83
2024/02/27 03:32:48;;;;;;;22.67;13.67;;;3.90;99.90;;;;;;5035587;28;20038;-82
2024/02/27 03:35:13;;;;;;;25.83;13.73;;;3.80;99.90;;;;;;5019250;28;20021;-82
2024/02/27 03:37:39;;;;;;;26.03;14.00;;;3.80;99.90;;;;;;5019682;28;20089;-82
2024/02/27 03:40:07;;;;;;;27.07;14.40;;;3.80;99.90;;;;;;5019654;28;20130;-82
2024/02/27 03:42:34;;;;;;;26.97;13.63;;;3.80;99.90;;;;;;5019684;28;20022;-81
2024/02/27 03:44:59;;;;;;;26.57;13.50;;;3.80;99.90;;;;;;5035926;28;20030;-82
2024/02/27 03:47:25;;;;;;;23.13;12.83;;;3.80;99.90;;;;;;5019483;28;20034;-82
2024/02/27 03:49:51;;;;;;;24.33;12.57;;;3.80;99.90;;;;;;5019319;28;20029;-82
2024/02/27 03:52:16;;;;;;;25.53;13.30;;;3.80;99.90;;;;;;5019203;28;20459;-82
2024/02/27 03:54:42;;;;;;;24.93;12.90;;;3.70;99.90;;;;;;5019262;28;20029;-82
2024/02/27 03:57:09;;;;;;;30.20;15.73;;;3.70;99.90;;;;;;5019108;28;20053;-83
2024/02/27 03:59:35;;;;;;;29.03;15.37;;;3.70;99.90;;;;;;5019370;28;20478;-82
2024/02/27 04:02:01;;;;;;;25.30;13.67;;;3.70;99.90;;;;;;5018894;28;20010;-83
2024/02/27 04:04:28;;;;;;;24.47;13.20;;;3.70;99.90;;;;;;5019855;28;20014;-82
2024/02/27 04:06:53;;;;;;;24.57;12.60;;;3.70;99.90;;;;;;5022095;28;20021;-82
2024/02/27 04:09:19;;;;;;;24.27;13.63;;;3.60;99.90;;;;;;5022791;28;20022;-81
2024/02/27 04:11:45;;;;;;;27.47;13.37;;;3.60;99.90;;;;;;5022074;28;20156;-81
2024/02/27 04:14:10;;;;;;;28.27;13.90;;;3.60;99.90;;;;;;5022355;28;20033;-82
2024/02/27 04:16:36;;;;;;;29.33;15.70;;;3.60;99.90;;;;;;5038861;28;20017;-81
2024/02/27 04:19:02;;;;;;;28.10;14.57;;;3.50;99.90;;;;;;5022239;28;20032;-82
2024/02/27 04:21:27;;;;;;;30.57;13.33;;;3.50;99.90;;;;;;5022289;28;20030;-82
2024/02/27 04:23:53;;;;;;;25.43;13.30;;;3.50;99.90;;;;;;5022168;28;20029;-83
2024/02/27 04:26:19;;;;;;;29.30;13.80;;;3.60;99.90;;;;;;5022614;28;20025;-83
2024/02/27 04:28:44;;;;;;;28.27;14.00;;;3.50;99.90;;;;;;5022103;28;20021;-82
2024/02/27 04:31:10;;;;;;;28.90;14.93;;;3.50;99.90;;;;;;5021470;28;20025;-83
2024/02/27 04:33:36;;;;;;;30.83;15.13;;;3.50;99.90;;;;;;5024552;28;20462;-83
2024/02/27 04:36:01;;;;;;;31.17;15.57;;;3.50;99.90;;;;;;5026312;28;20021;-81
2024/02/27 04:38:27;;;;;;;31.63;15.30;;;3.50;99.90;;;;;;5026445;28;20044;-81
2024/02/27 04:40:53;;;;;;;27.33;14.03;;;3.50;99.90;;;;;;5026285;28;20049;-81
2024/02/27 04:43:18;;;;;;;24.90;14.20;;;3.50;99.90;;;;;;5026704;28;20394;-81
2024/02/27 04:45:44;;;;;;;29.13;14.33;;;3.40;99.90;;;;;;5025738;28;20029;-81
2024/02/27 04:48:10;;;;;;;29.30;14.70;;;3.50;99.90;;;;;;5026133;28;20019;-81
2024/02/27 04:50:35;;;;;;;30.23;14.70;;;3.50;99.90;;;;;;5025746;28;20052;-82
2024/02/27 04:53:01;;;;;;;28.07;13.67;;;3.40;99.90;;;;;;5025315;28;20033;-81
2024/02/27 04:55:29;;;;;;;31.23;14.87;;;3.40;99.90;;;;;;5026083;28;20048;-82
2024/02/27 04:57:55;;;;;;;30.40;15.63;;;3.40;99.90;;;;;;5026267;28;20050;-81
2024/02/27 05:00:21;;;;;;;29.67;14.77;;;3.40;99.90;;;;;;5027142;28;20034;-81
2024/02/27 05:02:47;;;;;;;30.13;14.40;;;3.40;99.90;;;;;;5025095;28;20163;-81
2024/02/27 05:05:12;;;;;;;27.73;13.60;;;3.40;99.90;;;;;;5025280;28;20041;-81
2024/02/27 05:07:38;;;;;;;25.17;12.70;;;3.40;99.90;;;;;;5025318;28;20022;-81
2024/02/27 05:10:04;;;;;;;29.70;14.30;;;3.40;99.90;;;;;;5025656;28;20037;-81
2024/02/27 05:12:29;;;;;;;29.10;14.57;;;3.40;99.90;;;;;;5025768;28;20183;-80
2024/02/27 05:14:55;;;;;;;32.03;15.73;;;3.40;99.90;;;;;;5025234;28;20021;-81
2024/02/27 05:17:21;;;;;;;29.13;15.67;;;3.40;99.90;;;;;;5026030;28;20064;-80
2024/02/27 05:19:46;;;;;;;29.07;15.40;;;3.40;99.90;;;;;;5024960;28;20024;-81
2024/02/27 05:22:12;;;;;;;30.73;15.60;;;3.40;99.90;;;;;;5025824;28;20017;-81
2024/02/27 05:24:39;;;;;;;31.37;15.73;;;3.40;99.90;;;;;;5025385;28;20071;-81
2024/02/27 05:27:05;;;;;;;32.07;14.57;;;3.40;99.90;;;;;;5024932;28;20022;-82
2024/02/27 05:29:32;;;;;;;29.87;14.97;;;3.40;99.90;;;;;;5025183;28;20030;-82
2024/02/27 05:31:59;;;;;;;30.27;15.37;;;3.30;99.90;;;;;;5024340;28;20033;-83
2024/02/27 05:34:24;;;;;;;27.80;14.30;;;3.30;99.90;;;;;;5025346;28;20033;-82
2024/02/27 05:36:50;;;;;;;28.43;14.73;;;3.30;99.90;;;;;;5025158;28;20603;-81
2024/02/27 05:39:16;;;;;;;29.37;14.60;;;3.30;99.90;;;;;;5025208;28;20389;-82
2024/02/27 05:41:42;;;;;;;25.63;12.93;;;3.30;99.90;;;;;;5024569;28;20462;-81
2024/02/27 05:44:09;;;;;;;31.17;15.63;;;3.30;99.90;;;;;;5041883;28;20077;-81
2024/02/27 05:46:34;;;;;;;31.03;14.20;;;3.30;99.90;;;;;;5024987;28;20088;-81
2024/02/27 05:49:00;;;;;;;31.47;15.90;;;3.30;99.90;;;;;;5024692;28;20025;-78
2024/02/27 05:51:26;;;;;;;29.47;15.07;;;3.30;99.90;;;;;;5025052;28;20053;-81
2024/02/27 05:53:52;;;;;;;29.03;14.40;;;3.30;99.90;;;;;;5024658;28;20017;-81
2024/02/27 05:56:21;;;;;;;28.60;14.30;;;3.30;99.90;;;;;;5024456;28;20060;-81
2024/02/27 05:58:47;;;;;;;29.33;13.50;;;3.30;99.90;;;;;;5023930;28;20018;-81
2024/02/27 06:01:14;;;;;;;28.97;14.47;;;3.30;99.90;;;;;;5024110;28;20044;-81
2024/02/27 06:03:40;;;;;;;30.93;13.87;;;3.30;99.90;;;;;;5042043;28;20026;-81
2024/02/27 06:06:07;;;;;;;30.03;15.00;;;3.30;99.90;;;;;;5020644;28;20056;-82
2024/02/27 06:08:32;;;;;;;30.63;16.00;;;3.30;99.90;;;;;;5021697;28;20030;-80
2024/02/27 06:10:58;;;;;;;30.43;15.87;;;3.30;99.90;;;;;;5020837;28;20029;-81
2024/02/27 06:13:23;;;;;;;35.03;15.87;;;3.30;99.90;;;;;;5020954;28;20061;-81
2024/02/27 06:15:49;;;;;;;31.43;14.40;;;3.30;99.90;;;;;;5020607;28;20026;-80
2024/02/27 06:18:15;;;;;;;29.87;15.60;;;3.30;99.90;;;;;;5020652;28;20089;-80
2024/02/27 06:23:27;;;;;;;28.70;15.87;;;3.30;99.90;;;;;;5022584;28;20040;-79
2024/02/27 06:25:54;;;;;;;28.77;15.83;;;3.30;99.90;;;;;;5021148;28;20526;-79
2024/02/27 06:28:20;;;;;;;30.37;16.33;;;3.20;99.90;;;;;;5019906;28;20052;-79
2024/02/27 06:30:46;;;;;;;33.60;16.70;;;3.30;99.90;;;;;;5033483;28;20052;-80
2024/02/27 06:33:12;;;;;;;30.30;14.67;;;3.30;99.90;;;;;;5039715;28;20470;-80
2024/02/27 06:35:37;;;;;;;32.73;16.00;;;3.30;99.90;;;;;;5039308;28;20456;-80
2024/02/27 06:38:04;;;;;;;28.07;15.10;;;3.30;99.90;;;;;;5040314;28;20156;-80
2024/02/27 06:40:32;;;;;;;32.70;17.10;;;3.30;99.90;;;;;;5040155;28;20020;-80
2024/02/27 06:42:58;;;;;;;26.90;14.47;;;3.30;99.90;;;;;;5039817;28;20028;-80
2024/02/27 06:45:23;;;;;;;27.53;14.83;;;3.30;99.90;;;;;;5038841;28;20033;-80
2024/02/27 06:47:49;;;;;;;29.97;15.00;;;3.30;99.90;;;;;;5039693;28;20017;-80
2024/02/27 06:50:17;;;;;;;31.13;15.00;;;3.30;99.90;;;;;;5034480;28;20034;-81
2024/02/27 06:52:43;;;;;;;27.20;14.27;;;3.30;99.90;;;;;;5021912;28;20034;-80
2024/02/27 06:55:08;;;;;;;26.50;14.97;;;3.30;99.90;;;;;;5031199;28;20515;-79
2024/02/27 06:57:34;;;;;;;27.87;14.00;;;3.30;99.90;;;;;;5033478;28;20489;-80
2024/02/27 07:00:00;;;;;;;31.13;14.23;;;3.30;99.90;;;;;;5040073;28;20025;-79
2024/02/27 07:02:27;;;;;;;24.80;13.13;;;3.30;99.90;;;;;;5030124;28;20029;-79
2024/02/27 07:04:53;;;;;;;30.77;15.30;;;3.40;99.90;;;;;;5039377;28;20049;-80
2024/02/27 07:07:18;;;;;;;35.63;17.60;;;3.40;99.90;;;;;;5026648;28;20025;-80
2024/02/27 07:09:44;;;;;;;29.23;14.53;;;3.40;99.90;;;;;;5019508;28;20033;-79
2024/02/27 07:12:10;;;;;;;31.00;15.73;;;3.50;99.90;;;;;;5021065;28;20042;-80
2024/02/27 07:14:44;;;;;;;32.53;15.30;;;3.50;99.90;;;;;;5024167;28;20057;-80
2024/02/27 07:17:11;;;;;;;34.17;15.97;;;3.50;99.90;;;;;;5020347;28;20026;-80
2024/02/27 07:19:38;;;;;;;29.47;14.80;;;3.60;99.90;;;;;;5020501;28;20076;-80
2024/02/27 07:22:03;;;;;;;26.20;13.73;;;3.60;99.90;;;;;;5019601;28;20033;-80
2024/02/27 07:24:29;;;;;;;27.10;14.07;;;3.60;99.90;;;;;;5019643;28;20022;-80
2024/02/27 07:26:55;;;;;;;27.50;14.80;;;3.60;99.90;;;;;;5036054;28;20028;-80
2024/02/27 07:29:21;;;;;;;31.10;14.87;;;3.60;99.90;;;;;;5020142;28;20056;-80
2024/02/27 07:31:46;;;;;;;28.57;14.93;;;3.60;99.90;;;;;;5019233;28;20034;-80
2024/02/27 07:34:16;;;;;;;24.90;13.87;;;3.60;99.90;;;;;;5025888;28;20532;-82
2024/02/27 07:36:45;;;;;;;30.47;14.47;;;3.60;99.90;;;;;;5035957;28;20092;-80
2024/02/27 07:39:11;;;;;;;29.13;14.57;;;3.60;99.90;;;;;;5019960;28;20061;-81
2024/02/27 07:41:41;;;;;;;32.07;15.47;;;3.60;99.90;;;;;;5018873;28;20327;-82
2024/02/27 07:44:06;;;;;;;25.33;13.27;;;3.60;99.90;;;;;;5021151;28;20033;-82
2024/02/27 07:46:34;;;;;;;27.27;13.37;;;3.60;99.90;;;;;;5019268;28;20033;-82
2024/02/27 07:49:00;;;;;;;25.53;13.03;;;3.60;99.90;;;;;;5020353;28;20033;-79
2024/02/27 07:51:30;;;;;;;26.70;14.00;;;3.70;99.90;;;;;;5020754;28;20018;-80
2024/02/27 07:53:56;;;;;;;26.70;12.77;;;3.70;99.90;;;;;;5020747;28;20125;-80
2024/02/27 07:56:22;;;;;;;28.23;13.70;;;3.70;99.90;;;;;;5031698;28;20053;-80
2024/02/27 07:58:48;;;;;;;28.10;14.43;;;3.80;99.90;;;;;;5019204;28;20026;-80
2024/02/27 08:01:14;;;;;;;28.37;14.33;;;3.80;99.90;;;;;;5019316;28;20211;-80
2024/02/27 08:03:40;;;;;;;26.33;13.17;;;3.80;99.90;;;;;;5019065;28;20462;-80
2024/02/27 08:06:06;;;;;;;25.67;13.93;;;3.80;99.90;;;;;;5019051;28;20046;-80
2024/02/27 08:08:32;;;;;;;24.20;12.90;;;3.80;99.90;;;;;;5020670;28;20014;-80
2024/02/27 08:10:58;;;;;;;24.83;11.93;;;3.80;99.90;;;;;;5019108;28;20022;-80
2024/02/27 08:13:24;;;;;;;24.00;12.40;;;3.90;99.90;;;;;;5019318;28;20026;-80
2024/02/27 08:15:50;;;;;;;23.33;12.60;;;3.90;99.90;;;;;;5019154;28;20022;-80
2024/02/27 08:18:16;;;;;;;24.67;13.50;;;3.90;99.90;;;;;;5019149;28;20030;-80
2024/02/27 08:20:44;;;;;;;29.00;12.33;;;3.90;99.90;;;;;;5019284;28;20018;-80
2024/02/27 08:23:10;;;;;;;24.30;13.03;;;3.90;99.90;;;;;;5018974;28;20133;-80
2024/02/27 08:25:37;;;;;;;27.30;13.93;;;4.00;99.90;;;;;;5019144;28;20026;-80
2024/02/27 08:28:03;;;;;;;28.13;13.70;;;3.90;99.90;;;;;;5019129;28;20034;-80
2024/02/27 08:30:29;;;;;;;25.53;13.37;;;4.00;99.90;;;;;;5019973;28;20014;-80
2024/02/27 08:32:55;;;;;;;23.83;12.70;;;4.00;99.90;;;;;;5018837;28;20029;-79
2024/02/27 08:35:21;;;;;;;25.27;14.17;;;4.00;99.90;;;;;;5019106;28;20440;-81
2024/02/27 08:37:47;;;;;;;23.77;11.87;;;4.10;99.90;;;;;;5019429;28;20025;-81
2024/02/27 08:40:12;;;;;;;23.77;11.93;;;4.10;99.90;;;;;;5019397;28;20018;-80
2024/02/27 08:42:40;;;;;;;25.63;13.50;;;4.10;99.90;;;;;;5020112;28;20026;-80
2024/02/27 08:45:07;;;;;;;23.23;13.07;;;4.20;99.90;;;;;;5019130;28;20052;-80
2024/02/27 08:47:33;;;;;;;22.00;12.70;;;4.20;99.90;;;;;;5019920;28;20018;-80
2024/02/27 08:49:58;;;;;;;22.30;12.53;;;4.20;99.90;;;;;;5018522;28;20072;-79
2024/02/27 08:52:24;;;;;;;27.10;13.83;;;4.30;99.90;;;;;;5018387;28;20038;-80
2024/02/27 08:54:50;;;;;;;27.83;14.47;;;4.30;99.90;;;;;;5018604;28;20022;-81
2024/02/27 08:57:16;;;;;;;26.13;14.53;;;4.40;99.90;;;;;;5019281;28;20014;-80
2024/02/27 08:59:46;;;;;;;28.13;14.07;;;4.40;99.90;;;;;;5019196;28;20490;-81
2024/02/27 09:02:12;;;;;;;24.23;12.90;;;4.50;99.90;;;;;;5020295;28;20026;-81
2024/02/27 09:04:37;;;;;;;23.63;12.03;;;4.60;99.90;;;;;;5020367;28;20520;-81
2024/02/27 09:07:03;;;;;;;22.77;12.83;;;4.70;99.90;;;;;;5039129;28;20120;-81
2024/02/27 09:09:29;;;;;;;23.03;12.33;;;4.80;99.90;;;;;;5022214;28;20033;-81
2024/02/27 09:11:55;;;;;;;22.97;12.17;;;4.90;99.90;;;;;;5022233;28;20025;-82
2024/02/27 09:14:22;;;;;;;24.37;13.47;;;4.90;99.90;;;;;;5021878;28;20478;-80
2024/02/27 09:16:48;;;;;;;22.03;12.57;;;5.00;99.90;;;;;;5022005;28;20021;-81
2024/02/27 09:19:13;;;;;;;19.80;11.73;;;5.20;99.90;;;;;;5021910;28;20009;-80
2024/02/27 09:21:40;;;;;;;20.57;12.03;;;5.30;99.90;;;;;;5026056;28;20607;-80
2024/02/27 09:24:06;;;;;;;22.47;12.60;;;5.40;99.90;;;;;;5025661;28;20024;-80
2024/02/27 09:26:32;;;;;;;22.87;12.63;;;5.40;99.90;;;;;;5025357;28;20048;-80
2024/02/27 09:28:58;;;;;;;21.20;12.67;;;5.40;99.90;;;;;;5025372;28;20386;-80
2024/02/27 09:31:24;;;;;;;22.67;13.37;;;5.50;99.90;;;;;;5024820;28;20021;-79
2024/02/27 09:33:49;;;;;;;22.50;13.67;;;5.50;99.90;;;;;;5025220;28;20048;-80
2024/02/27 09:36:15;;;;;;;22.00;12.20;;;5.60;99.90;;;;;;5024994;28;20028;-80
2024/02/27 09:38:41;;;;;;;20.90;12.33;;;5.60;99.90;;;;;;5025513;28;20037;-80
2024/02/27 09:41:23;;;;;;;22.37;12.60;;;5.60;99.90;;;;;;5025274;28;20014;-80
2024/02/27 09:43:53;;;;;;;18.93;11.13;;;5.70;99.90;;;;;;5025477;28;20021;-80
2024/02/27 09:46:24;;;;;;;20.90;12.13;;;5.80;99.90;;;;;;5024794;28;20025;-80
2024/02/27 09:48:55;;;;;;;20.73;12.33;;;5.80;99.90;;;;;;5024918;28;20052;-80
2024/02/27 09:51:24;;;;;;;21.57;12.00;;;6.00;99.90;;;;;;5025086;28;20160;-80
2024/02/27 09:53:50;;;;;;;16.67;10.60;;;6.00;99.90;;;;;;5025125;28;20029;-81
2024/02/27 09:56:16;;;;;;;18.63;11.73;;;6.20;99.90;;;;;;5025019;28;20063;-80
2024/02/27 09:58:43;;;;;;;17.60;10.87;;;6.30;99.90;;;;;;5042525;28;20021;-80
2024/02/27 10:01:14;;;;;;;17.30;10.80;;;6.40;99.90;;;;;;5024428;28;20014;-80
2024/02/27 10:03:47;;;;;;;16.30;9.97;;;6.50;99.90;;;;;;5024871;28;20026;-80
2024/02/27 10:06:15;;;;;;;17.40;10.67;;;6.60;99.90;;;;;;5024432;28;20037;-80
2024/02/27 10:08:47;;;;;;;16.87;10.10;;;6.70;99.90;;;;;;5042640;28;20029;-80
2024/02/27 10:11:14;;;;;;;17.10;11.03;;;6.70;99.90;;;;;;5024328;28;20052;-81
2024/02/27 10:13:40;;;;;;;18.77;11.10;;;6.80;99.90;;;;;;5024361;28;20041;-80
2024/02/27 10:16:06;;;;;;;17.47;11.67;;;6.90;99.90;;;;;;5024504;28;20071;-80
2024/02/27 10:18:32;;;;;;;18.10;11.10;;;7.00;99.90;;;;;;5024415;28;20065;-80
2024/02/27 10:20:58;;;;;;;18.40;11.43;;;7.10;99.90;;;;;;5023977;28;20025;-80
2024/02/27 10:23:23;;;;;;;15.40;10.13;;;7.20;99.90;;;;;;5024616;28;20025;-80
2024/02/27 10:25:51;;;;;;;16.30;10.43;;;7.40;99.90;;;;;;5042797;28;20335;-79
2024/02/27 10:28:21;;;;;;;13.33;8.43;;;7.70;99.90;;;;;;5024693;28;20037;-80
2024/02/27 10:30:48;;;;;;;11.98;7.30;;;8.50;99.90;;;;;;5023650;28;20026;-80
2024/02/27 10:33:15;;;;;;;10.40;5.93;;;9.50;99.90;;;;;;5023978;28;20034;-81
2024/02/27 10:35:41;;;;;;;9.40;5.75;;;10.20;99.90;;;;;;5024091;28;20053;-81
2024/02/27 10:38:19;;;;;;;8.30;5.15;;;10.90;99.90;;;;;;5024320;28;20421;-81
2024/02/27 10:40:47;;;;;;;9.65;5.93;;;11.70;99.90;;;;;;5023943;28;20092;-81
2024/02/27 10:43:13;;;;;;;8.98;6.05;;;12.30;99.90;;;;;;5024626;28;20033;-81
2024/02/27 10:45:40;;;;;;;9.75;6.28;;;12.50;99.90;;;;;;5023815;28;20543;-80
2024/02/27 10:48:07;;;;;;;8.48;6.10;;;12.60;99.90;;;;;;5023746;28;20030;-80
2024/02/27 10:50:33;;;;;;;9.68;6.90;;;12.50;99.90;;;;;;5023657;28;20470;-81
2024/02/27 10:52:59;;;;;;;10.57;6.70;;;12.40;99.90;;;;;;5041519;28;20086;-81
2024/02/27 10:55:28;;;;;;;12.05;7.88;;;12.40;99.90;;;;;;5023787;28;20487;-81
2024/02/27 10:57:59;;;;;;;10.25;7.45;;;12.40;99.90;;;;;;5023732;28;20098;-81
2024/02/27 11:00:28;;;;;;;8.65;5.63;;;12.60;99.90;;;;;;5024218;28;20026;-81
2024/02/27 11:02:59;;;;;;;8.45;5.57;;;13.20;99.90;;;;;;5023510;28;20063;-82
2024/02/27 11:05:32;;;;;;;7.40;5.13;;;13.70;99.90;;;;;;5019915;28;20085;-82
2024/02/27 11:07:58;;;;;;;5.93;3.90;;;14.20;99.90;;;;;;5020214;28;20037;-81
2024/02/27 11:10:30;;;;;;;7.50;5.20;;;14.70;99.90;;;;;;5020953;28;20034;-82
2024/02/27 11:13:00;;;;;;;7.47;4.82;;;15.30;99.90;;;;;;5020381;28;20045;-81
2024/02/27 11:15:26;;;;;;;7.35;4.85;;;15.70;99.90;;;;;;5025998;28;20049;-80
2024/02/27 11:18:12;;;;;;;7.38;4.20;;;16.00;98.60;;;;;;5039286;28;20086;-81
2024/02/27 11:20:39;;;;;;;8.68;5.35;;;16.10;96.00;;;;;;5039876;28;20029;-81
2024/02/27 11:23:05;;;;;;;6.55;4.40;;;16.20;95.30;;;;;;5039680;28;20037;-81
2024/02/27 11:25:31;;;;;;;6.70;4.85;;;16.30;94.10;;;;;;5041637;28;20033;-81
2024/02/27 11:27:58;;;;;;;7.22;5.05;;;16.40;92.80;;;;;;5039585;28;20024;-81
2024/02/27 11:30:26;;;;;;;6.18;4.10;;;16.90;92.10;;;;;;5041145;28;20029;-81
2024/02/27 11:32:52;;;;;;;5.65;3.88;;;17.20;91.00;;;;;;5038911;28;20033;-82
2024/02/27 11:35:17;;;;;;;7.00;4.97;;;17.30;87.00;;;;;;5040027;28;20028;-81
2024/02/27 11:37:43;;;;;;;7.40;4.97;;;17.20;85.80;;;;;;5040883;28;20124;-81
2024/02/27 11:40:11;;;;;;;6.53;4.28;;;17.30;84.70;;;;;;5039168;28;20037;-82
2024/02/27 11:42:39;;;;;;;6.10;4.05;;;17.70;84.40;;;;;;5039086;28;20029;-82
2024/02/27 11:45:13;;;;;;;7.05;4.32;;;18.10;84.00;;;;;;5039024;28;20025;-82
2024/02/27 11:47:53;;;;;;;6.82;4.47;;;18.30;79.20;;;;;;5039680;28;20040;-81
2024/02/27 11:50:37;;;;;;;6.60;4.60;;;18.20;72.80;;;;;;5039071;28;20032;-82
2024/02/27 11:53:21;;;;;;;;;;;17.80;72.70;;;;;;5041211;28;20033;-82
2024/02/27 11:55:48;;;;;;;7.25;4.60;;;17.60;72.50;;;;;;5039757;28;19909;-81
2024/02/27 11:58:14;;;;;;;6.22;4.13;;;17.40;74.70;;;;;;5038729;28;20026;-82
2024/02/27 12:00:42;;;;;;;6.28;4.18;;;17.70;75.50;;;;;;5039595;28;20049;-83
2024/02/27 12:03:08;;;;;;;5.30;3.25;;;18.30;74.70;;;;;;5039279;28;20498;-83
2024/02/27 12:05:34;;;;;;;5.40;3.58;;;18.90;74.40;;;;;;5038901;28;20048;-83
2024/02/27 12:08:00;;;;;;;4.53;3.45;;;19.50;73.70;;;;;;5038941;28;20025;-82
2024/02/27 12:10:27;;;;;;;3.83;2.92;;;20.10;72.00;;;;;;5039916;28;20063;-82
2024/02/27 12:12:52;;;;;;;4.90;2.83;;;20.60;71.10;;;;;;5040673;28;20052;-83
2024/02/27 12:15:19;;;;;;;4.28;2.67;;;21.20;70.10;;;;;;5039872;28;20029;-82
2024/02/27 12:17:45;;;;;;;4.47;3.33;;;21.70;68.90;;;;;;5040553;28;20029;-82
2024/02/27 12:20:12;;;;;;;4.78;3.67;;;22.10;67.60;;;;;;5039135;28;20024;-83
2024/02/27 12:22:40;;;;;;;5.38;3.45;;;22.40;64.70;;;;;;5040915;28;20021;-84
2024/02/27 12:25:06;;;;;;;5.07;3.42;;;22.80;63.40;;;;;;5041131;28;20030;-84
2024/02/27 12:27:33;;;;;;;4.57;3.25;;;23.20;61.80;;;;;;5038661;28;20029;-84
2024/02/27 12:30:10;;;;;;;4.32;3.15;;;23.40;60.20;;;;;;5039023;28;20026;-82
2024/02/27 12:32:42;;;;;;;5.20;3.63;;;23.70;58.50;;;;;;5038768;28;20397;-82
2024/02/27 12:35:16;;;;;;;4.40;3.10;;;23.90;58.60;;;;;;5038717;28;20021;-82
2024/02/27 12:37:47;;;;;;;4.57;3.03;;;24.20;57.40;;;;;;5038827;28;20549;-83